createdAt,value
2023-01-21T00:01:12.158Z,2.94
2023-01-21T00:03:39.046Z,2.92
2023-01-21T00:06:06.525Z,2.91
2023-01-21T00:08:33.535Z,2.89
2023-01-21T00:11:08.642Z,2.87
2023-01-21T00:13:36.189Z,2.85
2023-01-21T00:16:04.499Z,2.83
2023-01-21T00:18:33.209Z,2.84
2023-01-21T00:21:00.120Z,2.84
2023-01-21T00:23:27.323Z,2.82
2023-01-21T00:25:59.061Z,2.81
2023-01-21T00:28:28.591Z,2.78
2023-01-21T00:31:03.089Z,2.73
2023-01-21T00:33:30.882Z,2.73
2023-01-21T00:36:00.119Z,2.76
2023-01-21T00:38:26.751Z,2.76
2023-01-21T00:40:53.325Z,2.79
2023-01-21T00:43:19.851Z,2.75
2023-01-21T00:45:46.358Z,2.74
2023-01-21T00:48:12.931Z,2.71
2023-01-21T00:50:39.465Z,2.68
2023-01-21T00:53:06.082Z,2.67
2023-01-21T00:55:32.652Z,2.65
2023-01-21T00:57:59.352Z,2.66
2023-01-21T01:00:26.016Z,2.69
2023-01-21T01:02:52.602Z,2.69
2023-01-21T01:05:20.051Z,2.72
2023-01-21T01:07:47.673Z,2.72
2023-01-21T01:10:14.336Z,2.69
2023-01-21T01:12:41.036Z,2.70
2023-01-21T01:15:08.503Z,2.72
2023-01-21T01:17:35.181Z,2.68
2023-01-21T01:20:02.283Z,2.68
2023-01-21T01:22:28.877Z,2.71
2023-01-21T01:24:55.447Z,2.69
2023-01-21T01:27:22.249Z,2.71
2023-01-21T01:29:49.125Z,2.69
2023-01-21T01:32:15.682Z,2.68
2023-01-21T01:34:42.264Z,2.66
2023-01-21T01:37:08.842Z,2.62
2023-01-21T01:39:35.826Z,2.58
2023-01-21T01:42:03.600Z,2.57
2023-01-21T01:44:54.388Z,2.48
2023-01-21T01:47:23.049Z,2.45
2023-01-21T01:49:49.644Z,2.42
2023-01-21T01:52:18.905Z,2.42
2023-01-21T01:54:49.090Z,2.45
2023-01-21T01:57:19.017Z,2.45
2023-01-21T01:59:47.840Z,2.46
2023-01-21T02:02:18.268Z,2.44
2023-01-21T02:04:50.014Z,2.42
2023-01-21T02:07:19.065Z,2.42
2023-01-21T02:09:45.747Z,2.43
2023-01-21T02:12:12.539Z,2.41
2023-01-21T02:14:43.234Z,2.39
2023-01-21T02:17:41.998Z,2.42
2023-01-21T02:20:45.979Z,2.39
2023-01-21T02:23:15.370Z,2.41
2023-01-21T02:25:54.138Z,2.44
2023-01-21T02:28:42.355Z,2.45
2023-01-21T02:31:15.129Z,2.45
2023-01-21T02:33:53.735Z,2.43
2023-01-21T02:36:37.928Z,2.42
2023-01-21T02:39:34.994Z,2.41
2023-01-21T02:42:13.828Z,2.41
2023-01-21T02:44:51.359Z,2.42
2023-01-21T02:47:28.459Z,2.41
2023-01-21T02:50:02.585Z,2.40
2023-01-21T02:52:30.203Z,2.41
2023-01-21T02:54:58.878Z,2.41
2023-01-21T02:57:44.371Z,2.39
2023-01-21T03:00:41.335Z,2.40
2023-01-21T03:03:46.057Z,2.40
2023-01-21T03:06:28.217Z,2.39
2023-01-21T03:09:02.060Z,2.41
2023-01-21T03:11:28.647Z,2.45
2023-01-21T03:14:32.796Z,2.44
2023-01-21T03:17:10.982Z,2.44
2023-01-21T03:19:45.545Z,2.46
2023-01-21T03:22:16.668Z,2.44
2023-01-21T03:24:47.191Z,2.46
2023-01-21T03:27:17.242Z,2.45
2023-01-21T03:29:45.439Z,2.46
2023-01-21T03:32:16.018Z,2.46
2023-01-21T03:34:45.935Z,2.48
2023-01-21T03:37:21.704Z,2.47
2023-01-21T03:39:59.011Z,2.49
2023-01-21T03:42:26.567Z,2.49
2023-01-21T03:44:53.694Z,2.49
2023-01-21T03:47:23.507Z,2.50
2023-01-21T03:49:57.884Z,2.49
2023-01-21T03:52:26.477Z,2.49
2023-01-21T03:54:54.255Z,2.50
2023-01-21T03:57:20.937Z,2.50
2023-01-21T03:59:47.514Z,2.48
2023-01-21T04:02:19.234Z,2.48
2023-01-21T04:04:47.627Z,2.48
2023-01-21T04:07:15.834Z,2.48
2023-01-21T04:09:42.434Z,2.46
2023-01-21T04:12:09.155Z,2.46
2023-01-21T04:14:35.801Z,2.48
2023-01-21T04:17:02.381Z,2.51
2023-01-21T04:19:28.917Z,2.51
2023-01-21T04:21:55.429Z,2.53
2023-01-21T04:24:22.081Z,2.54
2023-01-21T04:26:48.729Z,2.53
2023-01-21T04:29:15.562Z,2.53
2023-01-21T04:31:42.141Z,2.53
2023-01-21T04:34:08.941Z,2.52
2023-01-21T04:36:35.550Z,2.51
2023-01-21T04:39:02.056Z,2.52
2023-01-21T04:41:28.759Z,2.51
2023-01-21T04:43:55.412Z,2.49
2023-01-21T04:46:22.084Z,2.49
2023-01-21T04:48:48.644Z,2.51
2023-01-21T04:51:15.296Z,2.54
2023-01-21T04:53:41.885Z,2.58
2023-01-21T04:56:08.593Z,2.62
2023-01-21T04:58:35.168Z,2.59
2023-01-21T05:01:01.747Z,2.59
2023-01-21T05:03:28.304Z,2.59
2023-01-21T05:05:54.908Z,2.56
2023-01-21T05:08:21.528Z,2.55
2023-01-21T05:10:48.126Z,2.55
2023-01-21T05:13:14.703Z,2.52
2023-01-21T05:15:41.367Z,2.50
2023-01-21T05:18:07.931Z,2.50
2023-01-21T05:20:34.464Z,2.48
2023-01-21T05:23:01.055Z,2.47
2023-01-21T05:25:27.629Z,2.44
2023-01-21T05:27:54.928Z,2.43
2023-01-21T05:30:22.111Z,2.41
2023-01-21T05:32:57.760Z,2.40
2023-01-21T05:35:24.734Z,2.41
2023-01-21T05:37:51.426Z,2.40
2023-01-21T05:40:18.940Z,2.39
2023-01-21T05:42:46.757Z,2.35
2023-01-21T05:45:13.848Z,2.31
2023-01-21T05:47:40.451Z,2.31
2023-01-21T05:50:08.819Z,2.37
2023-01-21T05:52:35.677Z,2.92
2023-01-21T05:55:03.086Z,3.74
2023-01-21T05:57:30.425Z,4.61
2023-01-21T05:59:57.155Z,5.11
2023-01-21T06:02:25.247Z,5.21
2023-01-21T06:04:51.821Z,5.19
2023-01-21T06:07:18.385Z,5.18
2023-01-21T06:09:44.950Z,4.99
2023-01-21T06:12:11.518Z,4.71
2023-01-21T06:14:38.040Z,4.48
2023-01-21T06:17:04.770Z,4.06
2023-01-21T06:19:31.314Z,3.70
2023-01-21T06:21:57.827Z,3.41
2023-01-21T06:24:24.416Z,3.15
2023-01-21T06:26:51.056Z,2.97
2023-01-21T06:29:17.694Z,2.81
2023-01-21T06:31:44.473Z,2.71
2023-01-21T06:34:12.750Z,2.65
2023-01-21T06:36:42.609Z,2.61
2023-01-21T06:39:12.504Z,2.56
2023-01-21T06:41:39.235Z,2.54
2023-01-21T06:44:06.046Z,2.49
2023-01-21T06:46:32.971Z,2.47
2023-01-21T06:48:59.699Z,2.46
2023-01-21T06:51:26.298Z,2.47
2023-01-21T06:53:53.712Z,2.48
2023-01-21T06:56:21.719Z,2.50
2023-01-21T06:58:48.452Z,2.48
2023-01-21T07:01:15.154Z,2.49
2023-01-21T07:03:41.756Z,2.50
2023-01-21T07:06:08.385Z,2.48
2023-01-21T07:08:34.959Z,2.51
2023-01-21T07:11:01.703Z,2.50
2023-01-21T07:13:28.344Z,2.49
2023-01-21T07:16:00.840Z,2.47
2023-01-21T07:18:28.267Z,2.49
2023-01-21T07:20:54.979Z,2.52
2023-01-21T07:23:21.587Z,2.55
2023-01-21T07:25:48.222Z,2.52
2023-01-21T07:28:15.220Z,2.48
2023-01-21T07:30:42.037Z,2.39
2023-01-21T07:33:09.430Z,2.35
2023-01-21T07:35:36.190Z,2.29
2023-01-21T07:38:03.019Z,2.25
2023-01-21T07:40:29.728Z,2.25
2023-01-21T07:42:56.447Z,2.21
2023-01-21T07:45:23.473Z,2.19
2023-01-21T07:47:50.450Z,2.18
2023-01-21T07:50:17.173Z,2.14
2023-01-21T07:52:43.732Z,2.12
2023-01-21T07:55:12.483Z,2.09
2023-01-21T07:57:39.288Z,2.08
2023-01-21T08:00:07.051Z,2.05
2023-01-21T08:02:33.813Z,2.00
2023-01-21T08:05:00.451Z,1.99
2023-01-21T08:07:27.065Z,1.97
2023-01-21T08:09:53.674Z,1.96
2023-01-21T08:12:20.237Z,1.95
2023-01-21T08:14:46.819Z,1.96
2023-01-21T08:17:13.369Z,1.96
2023-01-21T08:19:39.940Z,1.95
2023-01-21T08:22:06.581Z,1.95
2023-01-21T08:24:33.168Z,1.95
2023-01-21T08:27:00.979Z,1.96
2023-01-21T08:29:27.958Z,1.96
2023-01-21T08:31:54.696Z,1.94
2023-01-21T08:34:21.482Z,1.96
2023-01-21T08:36:48.071Z,2.00
2023-01-21T08:39:16.360Z,2.07
2023-01-21T08:41:44.720Z,2.18
2023-01-21T08:44:11.715Z,2.28
2023-01-21T08:46:38.382Z,2.38
2023-01-21T08:49:05.499Z,2.40
2023-01-21T08:51:32.118Z,2.38
2023-01-21T08:53:58.773Z,2.31
2023-01-21T08:56:25.625Z,2.27
2023-01-21T08:58:56.882Z,2.26
2023-01-21T09:01:25.776Z,2.24
2023-01-21T09:03:59.835Z,2.24
2023-01-21T09:06:29.139Z,2.29
2023-01-21T09:08:56.373Z,2.29
2023-01-21T09:11:23.145Z,2.29
2023-01-21T09:13:49.884Z,2.28
2023-01-21T09:16:19.146Z,2.31
2023-01-21T09:18:46.318Z,2.28
2023-01-21T09:21:13.923Z,2.31
2023-01-21T09:23:41.423Z,2.36
2023-01-21T09:26:10.124Z,2.42
2023-01-21T09:28:38.468Z,2.44
2023-01-21T09:31:08.303Z,2.42
2023-01-21T09:33:37.626Z,2.40
2023-01-21T09:36:07.077Z,2.36
2023-01-21T09:38:34.200Z,2.30
2023-01-21T09:41:27.633Z,2.26
2023-01-21T09:44:20.396Z,2.26
2023-01-21T09:47:01.069Z,2.29
2023-01-21T09:49:33.688Z,2.32
2023-01-21T09:52:22.597Z,2.35
2023-01-21T09:54:49.211Z,2.39
2023-01-21T09:57:42.156Z,2.43
2023-01-21T10:00:30.265Z,2.45
2023-01-21T10:03:04.435Z,2.43
2023-01-21T10:05:38.479Z,2.41
2023-01-21T10:08:07.972Z,2.42
2023-01-21T10:10:57.612Z,2.38
2023-01-21T10:13:41.062Z,2.35
2023-01-21T10:16:35.943Z,2.29
2023-01-21T10:19:05.520Z,2.24
2023-01-21T10:21:56.143Z,2.12
2023-01-21T10:24:31.482Z,2.03
2023-01-21T10:26:59.223Z,1.98
2023-01-21T10:29:27.172Z,1.94
2023-01-21T10:32:08.566Z,1.91
2023-01-21T10:34:49.023Z,1.93
2023-01-21T10:37:41.530Z,1.98
2023-01-21T10:40:45.225Z,2.03
2023-01-21T10:43:47.519Z,2.05
2023-01-21T10:46:23.150Z,2.06
2023-01-21T10:49:17.975Z,2.07
2023-01-21T10:51:58.404Z,2.05
2023-01-21T10:54:46.904Z,2.02
2023-01-21T10:57:16.253Z,1.93
2023-01-21T10:59:43.047Z,1.90
2023-01-21T11:02:22.208Z,1.91
2023-01-21T11:04:48.976Z,1.96
2023-01-21T11:07:19.560Z,1.95
2023-01-21T11:09:48.146Z,1.98
2023-01-21T11:12:22.020Z,2.03
2023-01-21T11:14:54.882Z,2.10
2023-01-21T11:17:36.649Z,2.14
2023-01-21T11:20:16.726Z,2.20
2023-01-21T11:22:45.666Z,2.26
2023-01-21T11:25:34.821Z,2.31
2023-01-21T11:28:02.254Z,2.35
2023-01-21T11:30:49.518Z,2.36
2023-01-21T11:33:27.033Z,2.35
2023-01-21T11:35:55.251Z,2.31
2023-01-21T11:38:33.300Z,2.30
2023-01-21T11:41:13.583Z,2.35
2023-01-21T11:43:44.459Z,2.41
2023-01-21T11:46:28.869Z,2.46
2023-01-21T11:48:57.639Z,2.48
2023-01-21T11:51:24.298Z,2.51
2023-01-21T11:54:08.017Z,2.52
2023-01-21T11:56:36.439Z,2.61
2023-01-21T11:59:21.407Z,2.59
2023-01-21T12:02:05.345Z,2.49
2023-01-21T12:04:32.657Z,2.42
2023-01-21T12:07:00.584Z,2.35
2023-01-21T12:09:29.035Z,2.27
2023-01-21T12:12:01.887Z,2.30
2023-01-21T12:14:55.733Z,2.32
2023-01-21T12:17:56.883Z,2.25
2023-01-21T12:20:27.632Z,2.16
2023-01-21T12:23:05.865Z,2.16
2023-01-21T12:25:53.068Z,2.21
2023-01-21T12:28:25.762Z,2.33
2023-01-21T12:30:58.635Z,2.49
2023-01-21T12:33:37.332Z,2.51
2023-01-21T12:36:16.840Z,2.42
2023-01-21T12:38:49.239Z,2.39
2023-01-21T12:41:22.000Z,2.41
2023-01-21T12:43:54.531Z,2.37
2023-01-21T12:46:32.324Z,2.34
2023-01-21T12:49:23.784Z,2.37
2023-01-21T12:51:57.142Z,2.35
2023-01-21T12:54:27.566Z,2.36
2023-01-21T12:57:20.561Z,2.39
2023-01-21T13:00:06.084Z,2.39
2023-01-21T13:02:41.200Z,2.38
2023-01-21T13:05:32.876Z,2.36
2023-01-21T13:08:22.283Z,2.39
2023-01-21T13:10:57.571Z,2.48
2023-01-21T13:13:32.089Z,2.53
2023-01-21T13:16:04.016Z,2.58
2023-01-21T13:18:36.015Z,2.59
2023-01-21T13:21:35.077Z,2.62
2023-01-21T13:24:14.731Z,2.69
2023-01-21T13:26:41.258Z,2.83
2023-01-21T13:29:29.715Z,2.93
2023-01-21T13:32:22.686Z,3.04
2023-01-21T13:35:07.262Z,3.13
2023-01-21T13:37:51.104Z,3.18
2023-01-21T13:40:39.631Z,3.22
2023-01-21T13:43:28.112Z,3.18
2023-01-21T13:46:25.870Z,3.14
2023-01-21T13:49:07.539Z,3.09
2023-01-21T13:51:43.420Z,3.05
2023-01-21T13:54:43.664Z,3.01
2023-01-21T13:57:35.081Z,3.09
2023-01-21T14:00:20.046Z,3.18
2023-01-21T14:03:00.664Z,3.21
2023-01-21T14:05:36.168Z,3.23
2023-01-21T14:08:11.972Z,3.22
2023-01-21T14:10:58.791Z,3.17
2023-01-21T14:13:59.435Z,3.09
2023-01-21T14:16:46.287Z,3.01
2023-01-21T14:19:34.132Z,2.96
2023-01-21T14:22:06.983Z,2.94
2023-01-21T14:25:01.172Z,2.91
2023-01-21T14:27:42.930Z,2.92
2023-01-21T14:30:13.530Z,2.92
2023-01-21T14:33:02.276Z,2.93
2023-01-21T14:35:34.129Z,2.89
2023-01-21T14:38:12.503Z,2.78
2023-01-21T14:40:49.930Z,2.72
2023-01-21T14:43:42.217Z,2.71
2023-01-21T14:46:33.935Z,2.69
2023-01-21T14:49:04.251Z,2.69
2023-01-21T14:51:32.010Z,2.65
2023-01-21T14:54:02.769Z,2.63
2023-01-21T14:56:34.568Z,2.62
2023-01-21T14:59:05.217Z,2.61
2023-01-21T15:01:45.623Z,2.59
2023-01-21T15:04:25.000Z,2.57
2023-01-21T15:07:13.641Z,2.56
2023-01-21T15:09:51.166Z,2.56
2023-01-21T15:12:22.971Z,2.57
2023-01-21T15:14:50.291Z,2.56
2023-01-21T15:17:54.086Z,2.54
2023-01-21T15:20:42.569Z,2.50
2023-01-21T15:23:30.743Z,2.45
2023-01-21T15:26:09.348Z,2.43
2023-01-21T15:28:48.647Z,2.41
2023-01-21T15:31:21.508Z,2.36
2023-01-21T15:33:55.930Z,2.34
2023-01-21T15:36:30.418Z,2.33
2023-01-21T15:39:02.025Z,2.29
2023-01-21T15:41:47.638Z,2.17
2023-01-21T15:44:23.040Z,2.20
2023-01-21T15:47:27.324Z,2.11
2023-01-21T15:50:24.851Z,2.11
2023-01-21T15:53:00.853Z,2.03
2023-01-21T15:55:35.298Z,1.97
2023-01-21T15:58:21.841Z,1.96
2023-01-21T16:01:23.216Z,1.90
2023-01-21T16:04:14.652Z,1.90
2023-01-21T16:07:05.544Z,1.87
2023-01-21T16:09:52.374Z,1.84
2023-01-21T16:12:24.695Z,1.71
2023-01-21T16:15:22.370Z,1.62
2023-01-21T16:17:57.840Z,1.60
2023-01-21T16:20:24.789Z,1.61
2023-01-21T16:22:55.335Z,1.63
2023-01-21T16:25:25.347Z,1.60
2023-01-21T16:27:54.162Z,1.53
2023-01-21T16:30:30.852Z,1.48
2023-01-21T16:33:12.604Z,1.42
2023-01-21T16:35:48.454Z,1.42
2023-01-21T16:38:18.300Z,1.46
2023-01-21T16:40:45.330Z,1.45
2023-01-21T16:43:23.849Z,1.38
2023-01-21T16:45:56.728Z,1.38
2023-01-21T16:48:26.337Z,1.32
2023-01-21T16:50:54.380Z,1.30
2023-01-21T16:53:22.764Z,1.32
2023-01-21T16:55:53.171Z,1.35
2023-01-21T16:58:27.130Z,1.36
2023-01-21T17:01:19.964Z,1.34
2023-01-21T17:03:49.820Z,1.33
2023-01-21T17:06:21.410Z,1.31
2023-01-21T17:08:58.638Z,1.31
2023-01-21T17:11:25.677Z,1.30
2023-01-21T17:13:52.883Z,1.32
2023-01-21T17:16:35.732Z,1.28
2023-01-21T17:19:15.203Z,1.30
2023-01-21T17:21:47.656Z,1.29
2023-01-21T17:24:29.287Z,1.30
2023-01-21T17:27:03.128Z,1.31
2023-01-21T17:29:32.200Z,1.31
2023-01-21T17:31:59.993Z,1.32
2023-01-21T17:34:29.605Z,1.31
2023-01-21T17:36:56.964Z,1.32
2023-01-21T17:39:48.397Z,1.29
2023-01-21T17:42:22.226Z,1.32
2023-01-21T17:44:52.486Z,1.29
2023-01-21T17:47:27.853Z,1.28
2023-01-21T17:50:08.406Z,1.26
2023-01-21T17:52:35.052Z,1.27
2023-01-21T17:55:35.563Z,1.23
2023-01-21T17:58:06.941Z,1.27
2023-01-21T18:00:38.898Z,1.29
2023-01-21T18:03:05.558Z,1.25
2023-01-21T18:05:32.589Z,1.25
2023-01-21T18:07:59.276Z,1.21
2023-01-21T18:10:28.747Z,1.16
2023-01-21T18:12:57.911Z,1.12
2023-01-21T18:15:26.208Z,1.07
2023-01-21T18:18:02.693Z,1.01
2023-01-21T18:20:30.258Z,0.97
2023-01-21T18:22:58.409Z,0.94
2023-01-21T18:25:26.988Z,0.90
2023-01-21T18:27:56.730Z,0.86
2023-01-21T18:30:28.549Z,0.80
2023-01-21T18:32:55.878Z,0.71
2023-01-21T18:35:31.418Z,0.72
2023-01-21T18:37:57.966Z,0.72
2023-01-21T18:40:24.592Z,0.73
2023-01-21T18:42:55.414Z,0.73
2023-01-21T18:45:25.874Z,0.73
2023-01-21T18:47:52.696Z,0.76
2023-01-21T18:50:24.752Z,0.79
2023-01-21T18:52:52.383Z,0.82
2023-01-21T18:55:20.543Z,0.83
2023-01-21T18:57:49.558Z,0.83
2023-01-21T19:00:22.785Z,0.86
2023-01-21T19:02:53.516Z,0.88
2023-01-21T19:05:21.689Z,0.91
2023-01-21T19:07:48.401Z,0.93
2023-01-21T19:10:17.759Z,0.95
2023-01-21T19:12:44.512Z,0.97
2023-01-21T19:15:15.862Z,0.99
2023-01-21T19:17:42.789Z,1.01
2023-01-21T19:20:27.004Z,1.00
2023-01-21T19:22:55.166Z,1.04
2023-01-21T19:25:26.401Z,1.04
2023-01-21T19:27:55.726Z,1.05
2023-01-21T19:30:31.304Z,1.05
2023-01-21T19:33:00.688Z,1.03
2023-01-21T19:35:44.795Z,1.03
2023-01-21T19:38:17.856Z,1.03
2023-01-21T19:40:45.683Z,1.01
2023-01-21T19:43:21.646Z,0.98
2023-01-21T19:45:51.529Z,0.97
2023-01-21T19:48:20.151Z,0.96
2023-01-21T19:50:47.377Z,0.93
2023-01-21T19:53:16.024Z,0.93
2023-01-21T19:55:44.735Z,0.95
2023-01-21T19:58:20.049Z,0.95
2023-01-21T20:00:49.225Z,1.00
2023-01-21T20:03:17.764Z,1.00
2023-01-21T20:05:45.814Z,1.04
2023-01-21T20:08:15.215Z,1.06
2023-01-21T20:10:42.041Z,1.08
2023-01-21T20:13:13.382Z,1.09
2023-01-21T20:15:42.909Z,1.10
2023-01-21T20:18:24.786Z,1.10
2023-01-21T20:20:52.928Z,1.10
2023-01-21T20:23:21.783Z,1.13
2023-01-21T20:25:55.035Z,1.12
2023-01-21T20:28:22.803Z,1.16
2023-01-21T20:30:50.963Z,1.19
2023-01-21T20:33:20.230Z,1.24
2023-01-21T20:35:52.817Z,1.27
2023-01-21T20:38:34.756Z,1.28
2023-01-21T20:41:02.618Z,1.35
2023-01-21T20:43:29.451Z,1.39
2023-01-21T20:46:01.328Z,1.41
2023-01-21T20:48:29.191Z,1.38
2023-01-21T20:50:55.766Z,1.40
2023-01-21T20:53:22.359Z,1.38
2023-01-21T20:55:50.776Z,1.35
2023-01-21T20:58:19.107Z,1.30
2023-01-21T21:00:46.752Z,1.24
2023-01-21T21:03:16.615Z,1.21
2023-01-21T21:05:43.663Z,1.17
2023-01-21T21:08:21.567Z,1.13
2023-01-21T21:10:50.885Z,1.09
2023-01-21T21:13:17.774Z,1.05
2023-01-21T21:15:46.642Z,1.01
2023-01-21T21:18:14.005Z,1.00
2023-01-21T21:20:41.103Z,0.99
2023-01-21T21:23:10.034Z,0.95
2023-01-21T21:25:45.118Z,0.93
2023-01-21T21:28:16.067Z,0.91
2023-01-21T21:30:42.885Z,0.91
2023-01-21T21:33:16.764Z,0.87
2023-01-21T21:35:44.704Z,0.87
2023-01-21T21:38:17.614Z,0.84
2023-01-21T21:40:48.318Z,0.82
2023-01-21T21:43:33.176Z,0.79
2023-01-21T21:46:30.112Z,0.75
2023-01-21T21:48:56.698Z,0.74
2023-01-21T21:51:23.602Z,0.72
2023-01-21T21:53:50.607Z,0.71
2023-01-21T21:56:20.326Z,0.70
2023-01-21T21:58:47.423Z,0.69
2023-01-21T22:01:17.114Z,0.67
2023-01-21T22:03:44.277Z,0.67
2023-01-21T22:06:12.566Z,0.66
2023-01-21T22:08:40.702Z,0.65
2023-01-21T22:11:10.344Z,0.67
2023-01-21T22:13:40.260Z,0.67
2023-01-21T22:16:08.445Z,0.67
2023-01-21T22:18:35.320Z,0.68
2023-01-21T22:21:10.400Z,0.68
2023-01-21T22:23:38.037Z,0.70
2023-01-21T22:26:07.480Z,0.72
2023-01-21T22:28:37.128Z,0.73
2023-01-21T22:31:05.202Z,0.76
2023-01-21T22:33:33.008Z,0.80
2023-01-21T22:36:06.595Z,0.82
2023-01-21T22:38:34.782Z,0.87
2023-01-21T22:41:01.931Z,0.90
2023-01-21T22:43:29.498Z,0.92
2023-01-21T22:45:57.211Z,0.91
2023-01-21T22:48:24.405Z,0.94
2023-01-21T22:50:55.877Z,0.93
2023-01-21T22:53:23.776Z,0.93
2023-01-21T22:55:58.832Z,0.93
2023-01-21T22:58:26.740Z,0.95
2023-01-21T23:00:54.354Z,0.94
2023-01-21T23:03:21.748Z,0.93
2023-01-21T23:05:49.119Z,0.91
2023-01-21T23:08:17.060Z,0.92
2023-01-21T23:10:44.834Z,0.93
2023-01-21T23:13:13.080Z,0.93
2023-01-21T23:15:44.250Z,0.94
2023-01-21T23:18:12.595Z,0.93
2023-01-21T23:20:41.943Z,0.94
2023-01-21T23:23:09.967Z,0.96
2023-01-21T23:25:43.386Z,0.96
2023-01-21T23:28:10.972Z,0.98
2023-01-21T23:30:37.571Z,0.99
2023-01-21T23:33:04.296Z,1.00
2023-01-21T23:35:31.550Z,1.03
2023-01-21T23:37:59.011Z,1.02
2023-01-21T23:40:25.744Z,1.02
2023-01-21T23:42:52.298Z,1.00
2023-01-21T23:45:18.854Z,0.99
2023-01-21T23:47:47.371Z,0.96
2023-01-21T23:50:14.005Z,0.94
2023-01-21T23:52:41.513Z,0.94
2023-01-21T23:55:10.093Z,0.95
2023-01-21T23:57:36.704Z,0.93
